createdAt,value
2022-07-26T03:47:25.005Z,78.20
2022-07-26T03:49:52.122Z,79.30
2022-07-26T03:52:19.229Z,80.00
2022-07-26T03:54:46.219Z,80.10
2022-07-26T03:57:13.258Z,80.00
2022-07-26T03:59:40.261Z,80.40
2022-07-26T04:02:08.425Z,80.00
2022-07-26T04:04:35.538Z,80.30
2022-07-26T04:07:03.221Z,80.10
2022-07-26T04:09:31.056Z,80.50
2022-07-26T04:11:58.021Z,80.50
2022-07-26T04:14:25.079Z,81.40
2022-07-26T04:16:52.089Z,81.30
2022-07-26T04:19:19.105Z,81.40
2022-07-26T04:21:46.096Z,82.30
2022-07-26T04:24:13.095Z,82.30
2022-07-26T04:26:40.180Z,82.90
2022-07-26T04:29:08.284Z,83.00
2022-07-26T04:31:36.706Z,83.70
2022-07-26T04:34:03.754Z,84.10
2022-07-26T04:36:30.771Z,84.10
2022-07-26T04:38:57.753Z,84.20
2022-07-26T04:41:24.780Z,84.50
2022-07-26T04:43:51.922Z,84.80
2022-07-26T04:46:19.348Z,84.40
2022-07-26T04:48:46.584Z,84.20
2022-07-26T04:51:13.671Z,84.50
2022-07-26T04:53:40.741Z,85.60
2022-07-26T04:56:07.898Z,85.20
2022-07-26T04:58:34.889Z,85.60
2022-07-26T05:01:10.157Z,86.00
2022-07-26T05:03:38.108Z,85.20
2022-07-26T05:06:05.252Z,86.10
2022-07-26T05:08:32.304Z,87.00
2022-07-26T05:10:59.330Z,86.60
2022-07-26T05:13:29.862Z,86.50
2022-07-26T05:15:59.012Z,86.60
2022-07-26T05:18:26.500Z,87.00
2022-07-26T05:20:53.556Z,87.00
2022-07-26T05:23:20.687Z,86.80
2022-07-26T05:25:47.739Z,86.20
2022-07-26T05:28:14.745Z,86.20
2022-07-26T05:30:41.806Z,86.10
2022-07-26T05:33:08.917Z,86.10
2022-07-26T05:35:35.912Z,86.40
2022-07-26T05:38:02.917Z,86.30
2022-07-26T05:40:30.023Z,86.40
2022-07-26T05:42:57.190Z,87.00
2022-07-26T05:45:24.230Z,87.80
2022-07-26T05:47:51.647Z,88.50
2022-07-26T05:50:19.537Z,88.80
2022-07-26T05:52:46.516Z,89.20
2022-07-26T05:55:13.911Z,88.90
2022-07-26T05:57:47.354Z,89.10
2022-07-26T06:00:17.219Z,88.00
2022-07-26T06:02:44.339Z,88.00
2022-07-26T06:05:11.515Z,87.80
2022-07-26T06:07:38.555Z,88.20
2022-07-26T06:10:05.827Z,87.80
2022-07-26T06:12:32.799Z,87.80
2022-07-26T06:14:59.802Z,88.30
2022-07-26T06:17:30.125Z,88.70
2022-07-26T06:19:59.422Z,89.00
2022-07-26T06:22:26.403Z,88.60
2022-07-26T06:24:53.439Z,88.60
2022-07-26T06:27:20.425Z,88.70
2022-07-26T06:29:49.078Z,88.50
2022-07-26T06:32:16.106Z,88.40
2022-07-26T06:34:43.075Z,88.20
2022-07-26T06:37:10.073Z,88.10
2022-07-26T06:39:37.055Z,88.20
2022-07-26T06:42:04.215Z,88.40
2022-07-26T06:44:31.204Z,88.10
2022-07-26T06:46:58.177Z,88.10
2022-07-26T06:49:25.192Z,88.20
2022-07-26T06:51:52.172Z,88.20
2022-07-26T06:54:19.177Z,88.30
2022-07-26T06:56:46.191Z,88.50
2022-07-26T06:59:13.209Z,88.40
2022-07-26T07:01:51.877Z,88.40
2022-07-26T07:04:27.652Z,88.40
2022-07-26T07:06:54.750Z,88.00
2022-07-26T07:09:24.394Z,87.20
2022-07-26T07:11:58.672Z,86.00
2022-07-26T07:14:27.357Z,84.70
2022-07-26T07:16:55.151Z,85.30
2022-07-26T07:19:22.241Z,84.70
2022-07-26T07:21:49.288Z,84.80
2022-07-26T07:24:17.845Z,84.20
2022-07-26T07:26:44.912Z,83.00
2022-07-26T07:29:14.539Z,81.50
2022-07-26T07:31:48.291Z,80.50
2022-07-26T07:34:18.003Z,79.70
2022-07-26T07:36:47.168Z,78.20
2022-07-26T07:39:17.198Z,80.40
2022-07-26T07:41:47.632Z,81.00
2022-07-26T07:44:14.921Z,80.50
2022-07-26T07:46:42.053Z,80.50
2022-07-26T07:49:10.976Z,79.50
2022-07-26T07:51:38.428Z,80.10
2022-07-26T07:54:06.309Z,79.30
2022-07-26T07:56:33.765Z,79.10
2022-07-26T07:59:01.078Z,77.70
2022-07-26T08:01:39.668Z,77.80
2022-07-26T08:04:08.498Z,78.20
2022-07-26T08:06:35.932Z,78.20
2022-07-26T08:09:03.899Z,77.90
2022-07-26T08:11:33.983Z,78.50
2022-07-26T08:14:01.778Z,78.80
2022-07-26T08:16:29.068Z,78.70
2022-07-26T08:18:58.471Z,78.90
2022-07-26T08:21:28.051Z,79.30
2022-07-26T08:23:55.451Z,77.50
2022-07-26T08:26:22.467Z,78.10
2022-07-26T08:28:58.398Z,78.30
2022-07-26T08:31:36.991Z,77.80
2022-07-26T08:34:04.014Z,78.30
2022-07-26T08:36:32.615Z,79.70
2022-07-26T08:39:01.270Z,80.60
2022-07-26T08:41:28.452Z,80.80
2022-07-26T08:43:55.740Z,79.70
2022-07-26T08:46:25.957Z,80.00
2022-07-26T08:48:54.314Z,80.60
2022-07-26T08:51:22.748Z,79.80
2022-07-26T08:53:51.538Z,78.90
2022-07-26T08:56:18.503Z,78.20
2022-07-26T08:58:45.760Z,78.00
2022-07-26T09:01:13.036Z,78.90
2022-07-26T09:03:41.238Z,78.60
2022-07-26T09:06:28.116Z,78.80
2022-07-26T09:09:09.748Z,79.10
2022-07-26T09:11:36.915Z,77.70
2022-07-26T09:14:05.095Z,77.30
2022-07-26T09:16:35.119Z,77.50
2022-07-26T09:19:22.627Z,78.70
2022-07-26T09:21:50.206Z,80.20
2022-07-26T09:24:33.477Z,78.90
2022-07-26T09:27:01.394Z,78.60
2022-07-26T09:29:32.101Z,75.30
2022-07-26T09:32:12.903Z,75.70
2022-07-26T09:34:51.952Z,75.60
2022-07-26T09:37:32.183Z,74.50
2022-07-26T09:40:00.217Z,73.60
2022-07-26T09:42:29.547Z,73.50
2022-07-26T09:44:57.790Z,72.90
2022-07-26T09:47:40.350Z,73.10
2022-07-26T09:50:14.944Z,74.40
2022-07-26T09:52:57.327Z,75.70
2022-07-26T09:55:24.396Z,75.90
2022-07-26T09:57:53.779Z,76.10
2022-07-26T10:00:20.906Z,73.70
2022-07-26T10:02:47.886Z,74.80
2022-07-26T10:05:15.057Z,74.80
2022-07-26T10:07:42.099Z,74.50
2022-07-26T10:10:13.115Z,74.40
2022-07-26T10:12:44.057Z,74.40
2022-07-26T10:15:29.604Z,72.70
2022-07-26T10:17:56.581Z,72.50
2022-07-26T10:20:56.015Z,72.00
2022-07-26T10:23:31.853Z,71.90
2022-07-26T10:26:00.470Z,72.50
2022-07-26T10:28:28.954Z,71.40
2022-07-26T10:31:14.560Z,72.10
2022-07-26T10:33:43.919Z,71.60
2022-07-26T10:36:29.529Z,71.20
2022-07-26T10:38:59.365Z,71.30
2022-07-26T10:41:33.414Z,70.50
2022-07-26T10:44:12.085Z,70.30
2022-07-26T10:46:55.026Z,69.80
2022-07-26T10:49:27.789Z,68.80
2022-07-26T10:52:04.991Z,68.10
2022-07-26T10:54:31.980Z,67.90
2022-07-26T10:56:59.051Z,67.80
2022-07-26T10:59:54.378Z,68.20
2022-07-26T11:02:20.584Z,66.10
2022-07-26T11:04:48.634Z,65.20
2022-07-26T11:07:15.857Z,65.00
2022-07-26T11:09:42.860Z,65.60
2022-07-26T11:12:16.806Z,65.50
2022-07-26T11:14:48.273Z,64.60
2022-07-26T11:17:25.820Z,66.40
2022-07-26T11:19:53.212Z,66.80
2022-07-26T11:22:20.398Z,67.60
2022-07-26T11:24:47.623Z,67.50
2022-07-26T11:27:14.622Z,67.10
2022-07-26T11:29:41.785Z,67.20
2022-07-26T11:32:18.631Z,67.40
2022-07-26T11:34:46.682Z,65.80
2022-07-26T11:37:13.890Z,64.20
2022-07-26T11:39:40.942Z,64.00
2022-07-26T11:42:09.273Z,63.80
2022-07-26T11:44:36.671Z,64.40
2022-07-26T11:47:16.700Z,65.20
2022-07-26T11:50:01.226Z,65.60
2022-07-26T11:52:31.722Z,67.10
2022-07-26T11:54:59.135Z,66.60
2022-07-26T11:57:30.018Z,67.30
2022-07-26T11:59:58.048Z,67.10
2022-07-26T12:02:25.819Z,67.30
2022-07-26T12:05:12.417Z,66.00
2022-07-26T12:07:39.659Z,65.70
2022-07-26T12:10:06.954Z,63.10
2022-07-26T12:12:33.981Z,62.90
2022-07-26T12:15:02.508Z,64.10
2022-07-26T12:17:34.505Z,64.30
2022-07-26T12:20:15.851Z,64.20
2022-07-26T12:23:00.224Z,64.10
2022-07-26T12:25:27.905Z,63.70
2022-07-26T12:27:54.904Z,64.30
2022-07-26T12:30:22.106Z,64.70
2022-07-26T12:32:51.494Z,64.90
2022-07-26T12:35:27.815Z,63.00
2022-07-26T12:37:55.573Z,63.20
2022-07-26T12:40:26.439Z,62.80
2022-07-26T12:43:01.035Z,62.20
2022-07-26T12:45:33.329Z,62.70
2022-07-26T12:48:01.297Z,62.60
2022-07-26T12:50:29.169Z,62.30
2022-07-26T12:53:00.079Z,62.90
2022-07-26T12:55:27.496Z,63.80
2022-07-26T12:57:57.012Z,63.30
2022-07-26T13:00:24.527Z,62.50
2022-07-26T13:02:54.760Z,62.50
2022-07-26T13:05:22.014Z,60.30
2022-07-26T13:07:49.154Z,60.80
2022-07-26T13:13:03.731Z,60.40
2022-07-26T13:15:36.155Z,59.60
2022-07-26T13:18:07.873Z,59.70
2022-07-26T13:20:36.760Z,59.70
2022-07-26T13:23:03.934Z,60.00
2022-07-26T13:25:37.038Z,59.60
2022-07-26T13:28:05.747Z,59.90
2022-07-26T13:30:32.844Z,60.50
2022-07-26T13:32:59.947Z,58.90
2022-07-26T13:35:27.074Z,57.70
2022-07-26T13:37:54.177Z,56.40
2022-07-26T13:40:21.492Z,55.70
2022-07-26T13:42:51.268Z,56.60
2022-07-26T13:45:18.263Z,56.60
2022-07-26T13:47:45.287Z,57.00
2022-07-26T13:50:12.254Z,56.90
2022-07-26T13:52:40.224Z,56.40
2022-07-26T13:55:07.360Z,58.10
2022-07-26T13:57:49.512Z,56.80
2022-07-26T14:00:21.439Z,56.00
2022-07-26T14:02:48.563Z,52.30
2022-07-26T14:05:15.741Z,52.40
2022-07-26T14:07:43.495Z,52.30
2022-07-26T14:10:10.589Z,53.50
2022-07-26T14:12:38.213Z,54.00
2022-07-26T14:15:11.514Z,53.10
2022-07-26T14:17:40.991Z,53.20
2022-07-26T14:20:08.286Z,53.90
2022-07-26T14:22:35.379Z,54.30
2022-07-26T14:25:02.379Z,53.00
2022-07-26T14:27:29.427Z,53.30
2022-07-26T14:29:56.456Z,52.60
2022-07-26T14:32:23.516Z,52.00
2022-07-26T14:34:51.150Z,51.80
2022-07-26T14:37:42.663Z,53.50
2022-07-26T14:40:07.173Z,52.70
2022-07-26T14:42:34.151Z,52.40
2022-07-26T14:45:01.262Z,53.30
2022-07-26T14:47:28.257Z,52.60
2022-07-26T14:49:55.226Z,52.50
2022-07-26T14:52:22.352Z,52.60
2022-07-26T14:54:49.458Z,52.50
2022-07-26T14:57:16.555Z,52.30
2022-07-26T14:59:43.526Z,52.70
2022-07-26T15:02:11.722Z,52.40
2022-07-26T15:04:38.708Z,52.40
2022-07-26T15:07:05.709Z,52.30
2022-07-26T15:09:32.686Z,51.70
2022-07-26T15:12:00.091Z,52.70
2022-07-26T15:14:27.059Z,52.50
2022-07-26T15:16:54.097Z,52.10
2022-07-26T15:19:25.724Z,52.50
2022-07-26T15:21:53.521Z,53.20
2022-07-26T15:24:20.545Z,53.20
2022-07-26T15:26:50.283Z,52.60
2022-07-26T15:29:17.319Z,53.10
2022-07-26T15:31:44.668Z,53.40
2022-07-26T15:34:12.218Z,52.70
2022-07-26T15:36:39.476Z,52.80
2022-07-26T15:39:16.516Z,52.00
2022-07-26T15:41:45.159Z,52.50
2022-07-26T15:44:12.513Z,52.20
2022-07-26T15:46:40.046Z,51.60
2022-07-26T15:49:07.481Z,50.40
2022-07-26T15:51:34.678Z,52.00
2022-07-26T15:54:02.396Z,51.50
2022-07-26T15:56:29.485Z,50.60
2022-07-26T15:58:56.501Z,50.70
2022-07-26T16:01:23.544Z,50.80
2022-07-26T16:03:50.790Z,51.40
2022-07-26T16:06:17.757Z,51.30
2022-07-26T16:09:05.824Z,51.00
2022-07-26T16:11:31.789Z,51.80
2022-07-26T16:14:00.967Z,52.00
2022-07-26T16:16:32.111Z,50.80
2022-07-26T16:18:59.220Z,51.20
2022-07-26T16:21:26.315Z,51.80
2022-07-26T16:23:53.342Z,51.50
2022-07-26T16:26:20.418Z,51.20
2022-07-26T16:28:47.467Z,50.30
2022-07-26T16:31:14.499Z,49.70
2022-07-26T16:33:46.167Z,50.00
2022-07-26T16:36:14.105Z,50.20
2022-07-26T16:38:41.223Z,51.00
2022-07-26T16:41:08.316Z,49.70
2022-07-26T16:43:35.509Z,48.60
2022-07-26T16:46:02.608Z,48.50
2022-07-26T16:48:29.710Z,48.80
2022-07-26T16:50:56.770Z,49.00
2022-07-26T16:53:24.173Z,49.60
2022-07-26T16:55:51.919Z,50.30
2022-07-26T16:58:19.306Z,50.80
2022-07-26T17:00:47.507Z,51.50
2022-07-26T17:03:15.974Z,51.30
2022-07-26T17:05:44.431Z,52.00
2022-07-26T17:08:11.620Z,52.00
2022-07-26T17:10:38.691Z,52.40
2022-07-26T17:13:05.738Z,52.20
2022-07-26T17:15:32.907Z,52.10
2022-07-26T17:17:59.965Z,52.70
2022-07-26T17:20:27.096Z,52.90
2022-07-26T17:22:54.327Z,53.00
2022-07-26T17:25:21.296Z,53.00
2022-07-26T17:27:48.376Z,52.90
2022-07-26T17:30:15.697Z,52.70
2022-07-26T17:32:45.072Z,52.90
2022-07-26T17:35:12.242Z,52.70
2022-07-26T17:37:39.953Z,53.20
2022-07-26T17:40:08.137Z,52.50
2022-07-26T17:42:35.916Z,52.50
2022-07-26T17:45:03.449Z,52.90
2022-07-26T17:47:30.916Z,52.40
2022-07-26T17:50:26.467Z,52.80
2022-07-26T17:52:49.206Z,52.30
2022-07-26T17:55:18.282Z,52.60
2022-07-26T17:57:45.951Z,52.70
2022-07-26T18:00:13.305Z,52.80
2022-07-26T18:02:40.454Z,52.70
2022-07-26T18:05:07.646Z,53.10
2022-07-26T18:07:34.701Z,53.20
2022-07-26T18:10:01.669Z,53.20
2022-07-26T18:12:30.482Z,53.40
2022-07-26T18:14:57.511Z,53.20
2022-07-26T18:17:24.700Z,52.90
2022-07-26T18:19:51.680Z,53.30
2022-07-26T18:22:18.667Z,53.00
2022-07-26T18:24:45.675Z,53.10
2022-07-26T18:27:12.638Z,53.50
2022-07-26T18:29:39.682Z,53.70
2022-07-26T18:32:06.685Z,53.60
2022-07-26T18:34:33.737Z,53.80
2022-07-26T18:37:00.787Z,53.40
2022-07-26T18:39:32.681Z,53.70
2022-07-26T18:42:00.555Z,53.50
2022-07-26T18:44:27.593Z,54.00
2022-07-26T18:46:56.098Z,56.60
2022-07-26T18:49:23.716Z,55.80
2022-07-26T18:52:01.710Z,54.50
2022-07-26T18:54:32.582Z,54.70
2022-07-26T18:56:59.599Z,54.40
2022-07-26T18:59:26.661Z,54.20
2022-07-26T19:01:53.794Z,54.30
2022-07-26T19:04:21.737Z,54.40
2022-07-26T19:06:49.187Z,54.30
2022-07-26T19:09:16.862Z,54.30
2022-07-26T19:11:46.710Z,53.90
2022-07-26T19:14:13.734Z,54.20
2022-07-26T19:16:40.763Z,54.10
2022-07-26T19:19:07.726Z,54.40
2022-07-26T19:21:34.798Z,54.80
2022-07-26T19:24:01.774Z,55.20
2022-07-26T19:26:29.673Z,55.10
2022-07-26T19:28:57.060Z,55.30
2022-07-26T19:31:24.121Z,55.20
2022-07-26T19:33:51.200Z,54.90
2022-07-26T19:36:25.977Z,54.80
2022-07-26T19:38:54.314Z,55.10
2022-07-26T19:41:21.283Z,55.30
2022-07-26T19:43:48.262Z,55.20
2022-07-26T19:46:15.293Z,55.20
2022-07-26T19:48:42.437Z,55.30
2022-07-26T19:51:09.515Z,55.20
2022-07-26T19:53:36.493Z,54.80
2022-07-26T19:56:03.852Z,54.90
2022-07-26T19:58:30.898Z,55.00
2022-07-26T20:00:57.965Z,55.10
2022-07-26T20:03:25.032Z,55.20
2022-07-26T20:05:53.563Z,55.50
2022-07-26T20:08:20.918Z,55.50
2022-07-26T20:10:47.890Z,55.50
2022-07-26T20:13:14.959Z,55.50
2022-07-26T20:15:42.421Z,55.90
2022-07-26T20:18:10.241Z,55.60
2022-07-26T20:20:37.289Z,55.70
2022-07-26T20:23:06.006Z,55.80
2022-07-26T20:25:33.390Z,55.50
2022-07-26T20:28:00.486Z,55.60
2022-07-26T20:30:27.783Z,55.50
2022-07-26T20:32:54.973Z,55.40
2022-07-26T20:35:21.995Z,55.40
2022-07-26T20:37:48.978Z,55.80
2022-07-26T20:40:18.020Z,55.10
2022-07-26T20:42:47.529Z,55.20
2022-07-26T20:45:17.173Z,55.80
2022-07-26T20:47:44.213Z,55.80
2022-07-26T20:50:11.804Z,56.30
2022-07-26T20:52:38.950Z,56.50
2022-07-26T20:55:06.299Z,56.20
2022-07-26T20:57:33.371Z,56.80
2022-07-26T21:00:00.469Z,56.40
2022-07-26T21:02:27.661Z,56.90
2022-07-26T21:04:55.143Z,57.00
2022-07-26T21:07:22.434Z,57.70
2022-07-26T21:09:49.470Z,57.60
2022-07-26T21:12:16.499Z,57.40
2022-07-26T21:14:43.520Z,57.70
2022-07-26T21:17:12.091Z,57.80
2022-07-26T21:19:39.939Z,57.80
2022-07-26T21:22:07.138Z,57.10
2022-07-26T21:24:37.495Z,57.50
2022-07-26T21:27:05.116Z,57.60
2022-07-26T21:29:32.261Z,57.40
2022-07-26T21:32:05.209Z,57.60
2022-07-26T21:34:34.262Z,57.50
2022-07-26T21:37:01.993Z,57.40
2022-07-26T21:39:28.953Z,57.60
2022-07-26T21:41:56.000Z,57.50
2022-07-26T21:44:23.015Z,57.30
2022-07-26T21:46:52.654Z,57.50
2022-07-26T21:49:19.707Z,57.60
2022-07-26T21:51:46.779Z,57.60
2022-07-26T21:54:13.758Z,57.90
2022-07-26T21:56:41.455Z,57.90
2022-07-26T21:59:08.763Z,58.20
2022-07-26T22:01:36.057Z,58.20
2022-07-26T22:04:03.225Z,58.30
2022-07-26T22:06:30.227Z,58.30
2022-07-26T22:08:57.302Z,58.50
2022-07-26T22:11:24.367Z,58.70
2022-07-26T22:13:51.870Z,58.70
2022-07-26T22:16:18.985Z,58.60
2022-07-26T22:18:46.053Z,58.80
2022-07-26T22:21:13.131Z,58.50
2022-07-26T22:23:40.113Z,58.50
2022-07-26T22:26:07.098Z,58.60
2022-07-26T22:28:34.630Z,58.40
2022-07-26T22:31:01.658Z,58.60
2022-07-26T22:33:28.630Z,58.60
2022-07-26T22:35:55.893Z,58.70
2022-07-26T22:38:22.874Z,58.20
2022-07-26T22:40:49.922Z,58.60
2022-07-26T22:43:16.977Z,58.40
2022-07-26T22:45:44.182Z,58.40
2022-07-26T22:48:11.306Z,58.60
2022-07-26T22:50:38.402Z,58.40
2022-07-26T22:53:05.483Z,58.60
2022-07-26T22:55:32.996Z,58.80
2022-07-26T22:58:00.670Z,58.70
